createdAt,value
2022-12-24T00:01:03.941Z,6.68
2022-12-24T00:03:30.563Z,6.60
2022-12-24T00:05:57.212Z,6.40
2022-12-24T00:08:23.687Z,6.35
2022-12-24T00:10:51.532Z,7.00
2022-12-24T00:13:18.193Z,6.38
2022-12-24T00:15:44.755Z,6.22
2022-12-24T00:18:11.244Z,6.88
2022-12-24T00:20:37.814Z,6.80
2022-12-24T00:23:04.550Z,7.20
2022-12-24T00:25:30.990Z,6.72
2022-12-24T00:27:57.475Z,7.03
2022-12-24T00:30:23.961Z,6.57
2022-12-24T00:32:50.473Z,7.80
2022-12-24T00:35:16.943Z,7.03
2022-12-24T00:37:43.439Z,7.35
2022-12-24T00:40:10.228Z,7.60
2022-12-24T00:42:36.768Z,6.93
2022-12-24T00:45:03.330Z,7.30
2022-12-24T00:47:29.775Z,7.90
2022-12-24T00:49:56.235Z,6.70
2022-12-24T00:52:22.757Z,8.15
2022-12-24T00:54:49.180Z,7.97
2022-12-24T00:57:15.700Z,7.82
2022-12-24T00:59:42.139Z,7.25
2022-12-24T01:02:08.723Z,8.15
2022-12-24T01:04:54.114Z,7.28
2022-12-24T01:07:20.694Z,7.65
2022-12-24T01:09:47.164Z,7.00
2022-12-24T01:12:13.652Z,6.88
2022-12-24T01:14:40.174Z,7.97
2022-12-24T01:17:06.610Z,7.75
2022-12-24T01:19:33.588Z,6.72
2022-12-24T01:22:00.397Z,8.88
2022-12-24T01:24:27.001Z,8.43
2022-12-24T01:26:53.509Z,7.93
2022-12-24T01:29:19.960Z,7.85
2022-12-24T01:31:46.531Z,8.25
2022-12-24T01:34:13.018Z,8.50
2022-12-24T01:36:39.453Z,8.52
2022-12-24T01:39:05.854Z,7.80
2022-12-24T01:41:51.589Z,8.00
2022-12-24T01:44:22.756Z,7.70
2022-12-24T01:46:50.783Z,7.03
2022-12-24T01:49:17.837Z,8.43
2022-12-24T01:51:46.415Z,8.43
2022-12-24T01:54:17.349Z,7.78
2022-12-24T01:56:45.300Z,7.30
2022-12-24T01:59:13.514Z,7.18
2022-12-24T02:01:40.093Z,8.77
2022-12-24T02:04:12.121Z,7.47
2022-12-24T02:06:38.571Z,7.35
2022-12-24T02:09:04.991Z,7.25
2022-12-24T02:11:31.437Z,7.90
2022-12-24T02:14:00.329Z,7.35
2022-12-24T02:16:32.852Z,7.63
2022-12-24T02:19:17.945Z,7.55
2022-12-24T02:21:48.040Z,8.02
2022-12-24T02:24:23.841Z,7.63
2022-12-24T02:26:53.363Z,8.38
2022-12-24T02:29:46.048Z,7.70
2022-12-24T02:32:20.466Z,7.78
2022-12-24T02:34:51.641Z,7.30
2022-12-24T02:37:47.544Z,6.43
2022-12-24T02:40:17.215Z,7.03
2022-12-24T02:42:46.768Z,8.13
2022-12-24T02:45:17.937Z,7.47
2022-12-24T02:47:45.482Z,7.03
2022-12-24T02:50:13.040Z,8.73
2022-12-24T02:52:44.363Z,7.35
2022-12-24T02:55:24.364Z,7.88
2022-12-24T02:58:01.625Z,8.05
2022-12-24T03:00:31.184Z,8.10
2022-12-24T03:03:33.326Z,7.78
2022-12-24T03:06:11.800Z,7.82
2022-12-24T03:08:49.008Z,6.60
2022-12-24T03:11:15.872Z,8.25
2022-12-24T03:13:43.434Z,8.82
2022-12-24T03:16:11.727Z,8.15
2022-12-24T03:18:39.817Z,7.25
2022-12-24T03:21:16.147Z,7.78
2022-12-24T03:23:42.995Z,9.02
2022-12-24T03:26:10.803Z,7.38
2022-12-24T03:28:38.846Z,7.43
2022-12-24T03:31:06.625Z,6.53
2022-12-24T03:33:33.095Z,6.38
2022-12-24T03:35:59.499Z,6.30
2022-12-24T03:38:26.075Z,7.00
2022-12-24T03:40:52.524Z,6.22
2022-12-24T03:43:19.038Z,5.50
2022-12-24T03:45:45.491Z,6.50
2022-12-24T03:48:11.930Z,5.70
2022-12-24T03:50:38.354Z,5.75
2022-12-24T03:53:04.765Z,6.18
2022-12-24T03:55:31.301Z,7.05
2022-12-24T03:57:57.812Z,6.72
2022-12-24T04:00:24.353Z,6.13
2022-12-24T04:02:50.885Z,6.15
2022-12-24T04:05:18.894Z,5.13
2022-12-24T04:07:45.728Z,5.40
2022-12-24T04:10:12.369Z,4.60
2022-12-24T04:12:39.046Z,5.38
2022-12-24T04:15:05.873Z,5.53
2022-12-24T04:17:32.595Z,4.60
2022-12-24T04:19:59.560Z,5.25
2022-12-24T04:22:25.994Z,4.93
2022-12-24T04:24:52.534Z,4.78
2022-12-24T04:27:18.970Z,4.57
2022-12-24T04:29:45.399Z,4.60
2022-12-24T04:32:11.890Z,4.30
2022-12-24T04:34:38.384Z,4.28
2022-12-24T04:37:04.827Z,5.13
2022-12-24T04:39:31.724Z,6.03
2022-12-24T04:41:58.172Z,5.25
2022-12-24T04:44:24.687Z,6.18
2022-12-24T04:46:51.116Z,5.47
2022-12-24T04:49:17.850Z,5.80
2022-12-24T04:51:44.267Z,5.75
2022-12-24T04:54:10.691Z,5.55
2022-12-24T04:56:37.149Z,5.07
2022-12-24T04:59:03.623Z,5.20
2022-12-24T05:01:31.204Z,5.82
2022-12-24T05:03:58.305Z,4.88
2022-12-24T05:06:26.201Z,5.32
2022-12-24T05:08:56.481Z,5.88
2022-12-24T05:11:22.928Z,5.95
2022-12-24T05:13:49.390Z,5.32
2022-12-24T05:16:17.438Z,5.00
2022-12-24T05:18:44.001Z,5.53
2022-12-24T05:21:11.677Z,4.93
2022-12-24T05:23:56.881Z,5.53
2022-12-24T05:26:27.516Z,6.00
2022-12-24T05:28:55.999Z,6.00
2022-12-24T05:31:23.871Z,5.30
2022-12-24T05:33:50.360Z,5.30
2022-12-24T05:36:17.085Z,6.03
2022-12-24T05:38:43.639Z,5.10
2022-12-24T05:41:10.113Z,5.95
2022-12-24T05:43:37.023Z,4.85
2022-12-24T05:46:05.287Z,6.18
2022-12-24T05:48:31.983Z,5.88
2022-12-24T05:50:58.371Z,7.38
2022-12-24T05:53:24.831Z,5.35
2022-12-24T05:55:51.282Z,6.15
2022-12-24T05:58:17.755Z,5.60
2022-12-24T06:00:44.291Z,6.18
2022-12-24T06:03:10.840Z,6.35
2022-12-24T06:05:37.325Z,6.50
2022-12-24T06:08:03.810Z,6.10
2022-12-24T06:10:30.264Z,6.63
2022-12-24T06:12:56.684Z,7.97
2022-12-24T06:15:24.328Z,6.70
2022-12-24T06:17:50.924Z,5.82
2022-12-24T06:20:17.420Z,6.82
2022-12-24T06:22:43.892Z,6.57
2022-12-24T06:25:10.421Z,6.80
2022-12-24T06:27:36.914Z,7.40
2022-12-24T06:30:03.568Z,7.15
2022-12-24T06:32:30.056Z,6.28
2022-12-24T06:34:56.593Z,8.10
2022-12-24T06:37:23.049Z,7.55
2022-12-24T06:39:49.486Z,7.28
2022-12-24T06:42:15.961Z,6.75
2022-12-24T06:44:42.446Z,7.00
2022-12-24T06:47:08.895Z,7.35
2022-12-24T06:49:35.366Z,7.68
2022-12-24T06:52:01.890Z,7.78
2022-12-24T06:54:28.351Z,7.97
2022-12-24T06:56:57.699Z,7.50
2022-12-24T06:59:24.466Z,8.55
2022-12-24T07:01:51.063Z,8.35
2022-12-24T07:04:20.491Z,8.40
2022-12-24T07:06:47.362Z,8.15
2022-12-24T07:09:14.462Z,7.68
2022-12-24T07:11:41.043Z,8.10
2022-12-24T07:14:07.544Z,8.18
2022-12-24T07:16:34.187Z,7.88
2022-12-24T07:19:00.725Z,9.05
2022-12-24T07:21:27.195Z,8.40
2022-12-24T07:23:53.629Z,8.30
2022-12-24T07:26:20.124Z,9.20
2022-12-24T07:28:46.575Z,8.98
2022-12-24T07:31:13.191Z,7.78
2022-12-24T07:33:39.737Z,8.48
2022-12-24T07:36:08.126Z,8.57
2022-12-24T07:38:35.299Z,8.55
2022-12-24T07:41:01.818Z,8.38
2022-12-24T07:43:28.370Z,7.57
2022-12-24T07:45:56.141Z,8.50
2022-12-24T07:48:22.767Z,8.65
2022-12-24T07:50:49.807Z,7.30
2022-12-24T07:53:16.260Z,8.40
2022-12-24T07:55:42.723Z,8.38
2022-12-24T07:58:09.148Z,8.27
2022-12-24T08:00:35.604Z,8.50
2022-12-24T08:03:02.205Z,8.43
2022-12-24T08:05:28.751Z,8.98
2022-12-24T08:07:55.346Z,9.27
2022-12-24T08:10:21.881Z,9.20
2022-12-24T08:12:48.444Z,8.60
2022-12-24T08:15:14.938Z,8.52
2022-12-24T08:17:41.444Z,8.73
2022-12-24T08:20:08.586Z,7.85
2022-12-24T08:22:35.117Z,7.70
2022-12-24T08:25:01.584Z,9.63
2022-12-24T08:27:28.065Z,8.02
2022-12-24T08:29:54.696Z,7.85
2022-12-24T08:32:21.402Z,7.63
2022-12-24T08:34:48.014Z,8.65
2022-12-24T08:37:14.480Z,8.50
2022-12-24T08:39:40.948Z,9.60
2022-12-24T08:42:07.461Z,7.70
2022-12-24T08:44:34.112Z,8.35
2022-12-24T08:47:00.550Z,8.48
2022-12-24T08:49:27.022Z,7.63
2022-12-24T08:51:53.532Z,8.05
2022-12-24T08:54:20.053Z,8.30
2022-12-24T08:56:46.559Z,7.57
2022-12-24T08:59:13.007Z,8.15
2022-12-24T09:01:39.842Z,8.13
2022-12-24T09:04:06.333Z,9.00
2022-12-24T09:06:36.294Z,8.90
2022-12-24T09:09:11.354Z,8.05
2022-12-24T09:11:37.900Z,8.23
2022-12-24T09:14:05.307Z,7.50
2022-12-24T09:16:34.130Z,8.63
2022-12-24T09:19:01.210Z,9.13
2022-12-24T09:21:27.849Z,8.75
2022-12-24T09:23:54.722Z,7.80
2022-12-24T09:26:23.228Z,7.47
2022-12-24T09:28:59.592Z,7.65
2022-12-24T09:31:26.544Z,7.93
2022-12-24T09:33:53.678Z,7.95
2022-12-24T09:36:20.954Z,9.00
2022-12-24T09:38:48.136Z,7.78
2022-12-24T09:41:24.787Z,7.78
2022-12-24T09:43:55.701Z,8.32
2022-12-24T09:46:22.178Z,9.10
2022-12-24T09:48:50.745Z,8.70
2022-12-24T09:51:23.113Z,8.45
2022-12-24T09:54:04.587Z,8.15
2022-12-24T09:56:33.468Z,8.77
2022-12-24T09:59:01.598Z,9.57
2022-12-24T10:01:30.452Z,8.68
2022-12-24T10:04:01.941Z,7.93
2022-12-24T10:06:50.283Z,9.40
2022-12-24T10:09:35.674Z,8.65
2022-12-24T10:12:22.768Z,8.20
2022-12-24T10:14:56.390Z,8.50
2022-12-24T10:17:45.557Z,9.02
2022-12-24T10:20:12.013Z,7.88
2022-12-24T10:22:55.905Z,8.85
2022-12-24T10:25:25.344Z,8.63
2022-12-24T10:27:53.505Z,7.97
2022-12-24T10:30:21.841Z,8.60
2022-12-24T10:32:49.874Z,8.85
2022-12-24T10:35:16.328Z,8.35
2022-12-24T10:37:43.927Z,10.05
2022-12-24T10:40:22.702Z,8.50
2022-12-24T10:42:51.612Z,9.95
2022-12-24T10:45:20.643Z,7.78
2022-12-24T10:47:49.181Z,7.68
2022-12-24T10:50:18.558Z,8.15
2022-12-24T10:52:46.080Z,7.95
2022-12-24T10:55:12.661Z,8.23
2022-12-24T10:57:40.432Z,7.10
2022-12-24T11:00:07.403Z,8.40
2022-12-24T11:02:35.551Z,8.40
2022-12-24T11:05:03.643Z,9.27
2022-12-24T11:07:30.903Z,8.32
2022-12-24T11:09:58.645Z,7.97
2022-12-24T11:12:26.548Z,8.45
2022-12-24T11:15:28.602Z,8.50
2022-12-24T11:18:14.180Z,7.72
2022-12-24T11:20:41.117Z,8.45
2022-12-24T11:23:14.284Z,8.07
2022-12-24T11:25:41.634Z,8.27
2022-12-24T11:28:12.553Z,7.75
2022-12-24T11:30:39.196Z,8.60
2022-12-24T11:33:08.476Z,8.05
2022-12-24T11:35:39.737Z,6.88
2022-12-24T11:38:06.203Z,8.98
2022-12-24T11:40:35.459Z,8.52
2022-12-24T11:43:02.873Z,7.53
2022-12-24T11:45:30.630Z,6.68
2022-12-24T11:47:57.719Z,7.60
2022-12-24T11:50:37.438Z,8.23
2022-12-24T11:53:03.878Z,6.93
2022-12-24T11:55:35.158Z,7.18
2022-12-24T11:58:12.373Z,7.20
2022-12-24T12:00:40.254Z,7.38
2022-12-24T12:03:13.444Z,7.97
2022-12-24T12:05:39.959Z,8.63
2022-12-24T12:08:17.579Z,6.97
2022-12-24T12:10:45.528Z,6.32
2022-12-24T12:13:17.755Z,5.93
2022-12-24T12:15:59.263Z,6.93
2022-12-24T12:18:28.481Z,6.78
2022-12-24T12:20:58.301Z,7.70
2022-12-24T12:23:33.110Z,6.20
2022-12-24T12:26:02.176Z,8.05
2022-12-24T12:28:32.231Z,7.22
2022-12-24T12:31:16.049Z,6.88
2022-12-24T12:33:46.036Z,7.32
2022-12-24T12:36:21.308Z,6.47
2022-12-24T12:38:49.009Z,7.22
2022-12-24T12:41:29.119Z,6.40
2022-12-24T12:44:14.341Z,7.45
2022-12-24T12:46:54.421Z,6.88
2022-12-24T12:49:46.556Z,7.30
2022-12-24T12:52:25.628Z,7.82
2022-12-24T12:55:02.765Z,6.30
2022-12-24T12:57:37.076Z,6.60
2022-12-24T13:00:06.252Z,6.65
2022-12-24T13:02:43.329Z,6.18
2022-12-24T13:05:25.415Z,6.88
2022-12-24T13:08:21.792Z,5.65
2022-12-24T13:11:06.167Z,5.97
2022-12-24T13:13:40.192Z,6.20
2022-12-24T13:16:25.436Z,6.65
2022-12-24T13:19:19.708Z,5.50
2022-12-24T13:21:48.906Z,5.15
2022-12-24T13:24:20.289Z,5.57
2022-12-24T13:27:06.860Z,5.31
2022-12-24T13:29:36.413Z,5.85
2022-12-24T13:32:23.494Z,5.55
2022-12-24T13:34:54.132Z,6.78
2022-12-24T13:37:35.092Z,6.15
2022-12-24T13:40:08.111Z,5.15
2022-12-24T13:42:46.946Z,5.07
2022-12-24T13:45:29.040Z,5.28
2022-12-24T13:48:01.063Z,5.63
2022-12-24T13:50:39.822Z,5.05
2022-12-24T13:53:07.156Z,4.65
2022-12-24T13:55:34.260Z,4.68
2022-12-24T13:58:05.098Z,5.53
2022-12-24T14:00:38.346Z,5.43
2022-12-24T14:03:24.030Z,5.82
2022-12-24T14:05:52.596Z,5.97
2022-12-24T14:08:25.648Z,5.93
2022-12-24T14:10:58.159Z,5.53
2022-12-24T14:13:39.633Z,5.32
2022-12-24T14:16:08.882Z,5.65
2022-12-24T14:18:38.824Z,6.07
2022-12-24T14:21:06.090Z,5.22
2022-12-24T14:23:32.647Z,6.15
2022-12-24T14:26:00.713Z,6.28
2022-12-24T14:28:32.724Z,5.97
2022-12-24T14:31:00.494Z,5.45
2022-12-24T14:33:34.204Z,5.88
2022-12-24T14:36:01.535Z,6.13
2022-12-24T14:38:28.173Z,5.85
2022-12-24T14:41:06.200Z,6.93
2022-12-24T14:43:42.958Z,5.35
2022-12-24T14:46:17.456Z,7.15
2022-12-24T14:48:49.878Z,5.05
2022-12-24T14:51:28.074Z,5.82
2022-12-24T14:54:03.741Z,5.07
2022-12-24T14:56:30.364Z,7.22
2022-12-24T14:58:59.057Z,5.15
2022-12-24T15:01:26.807Z,6.47
2022-12-24T15:04:19.533Z,6.55
2022-12-24T15:06:56.752Z,7.03
2022-12-24T15:09:29.287Z,5.93
2022-12-24T15:11:57.355Z,6.10
2022-12-24T15:14:25.152Z,6.32
2022-12-24T15:16:56.026Z,7.00
2022-12-24T15:19:24.918Z,6.88
2022-12-24T15:21:51.717Z,7.72
2022-12-24T15:24:26.100Z,7.07
2022-12-24T15:26:52.548Z,4.78
2022-12-24T15:29:24.050Z,6.63
2022-12-24T15:31:57.733Z,6.40
2022-12-24T15:34:27.188Z,6.38
2022-12-24T15:37:00.343Z,6.72
2022-12-24T15:39:27.260Z,5.60
2022-12-24T15:42:12.577Z,7.18
2022-12-24T15:44:40.511Z,6.82
2022-12-24T15:47:08.628Z,6.40
2022-12-24T15:49:35.616Z,6.38
2022-12-24T15:52:04.092Z,6.97
2022-12-24T15:54:30.505Z,5.82
2022-12-24T15:56:56.948Z,7.90
2022-12-24T15:59:27.626Z,7.65
2022-12-24T16:01:54.886Z,6.50
2022-12-24T16:04:22.917Z,7.80
2022-12-24T16:07:01.776Z,6.63
2022-12-24T16:09:31.456Z,7.65
2022-12-24T16:12:03.229Z,7.00
2022-12-24T16:14:32.170Z,7.72
2022-12-24T16:16:58.738Z,7.07
2022-12-24T16:19:27.750Z,7.07
2022-12-24T16:21:58.510Z,7.78
2022-12-24T16:24:28.923Z,7.65
2022-12-24T16:26:55.676Z,8.02
2022-12-24T16:29:27.273Z,7.10
2022-12-24T16:31:57.606Z,9.13
2022-12-24T16:34:27.801Z,7.28
2022-12-24T16:36:54.832Z,7.57
2022-12-24T16:39:23.566Z,8.63
2022-12-24T16:42:08.933Z,7.53
2022-12-24T16:44:35.708Z,9.15
2022-12-24T16:47:02.183Z,7.75
2022-12-24T16:49:29.085Z,8.43
2022-12-24T16:51:55.512Z,9.68
2022-12-24T16:54:21.970Z,9.98
2022-12-24T16:56:48.542Z,8.02
2022-12-24T16:59:18.768Z,9.35
2022-12-24T17:01:45.358Z,8.48
2022-12-24T17:04:12.636Z,9.88
2022-12-24T17:06:39.194Z,8.50
2022-12-24T17:09:05.844Z,8.65
2022-12-24T17:11:32.315Z,8.13
2022-12-24T17:14:00.233Z,10.13
2022-12-24T17:16:28.808Z,9.15
2022-12-24T17:18:55.409Z,8.68
2022-12-24T17:21:21.916Z,7.85
2022-12-24T17:23:48.479Z,8.00
2022-12-24T17:26:15.436Z,8.00
2022-12-24T17:28:42.586Z,9.07
2022-12-24T17:31:14.000Z,10.30
2022-12-24T17:33:40.667Z,7.70
2022-12-24T17:36:07.380Z,8.82
2022-12-24T17:38:33.938Z,10.15
2022-12-24T17:41:07.784Z,9.18
2022-12-24T17:43:34.788Z,8.07
2022-12-24T17:46:05.546Z,10.18
2022-12-24T17:48:32.093Z,8.90
2022-12-24T17:50:58.562Z,8.45
2022-12-24T17:53:25.109Z,8.43
2022-12-24T17:55:51.552Z,10.38
2022-12-24T17:58:18.018Z,9.68
2022-12-24T18:00:44.509Z,8.60
2022-12-24T18:03:12.935Z,8.73
2022-12-24T18:05:39.566Z,8.57
2022-12-24T18:08:06.674Z,9.88
2022-12-24T18:10:33.269Z,11.48
2022-12-24T18:12:59.847Z,9.13
2022-12-24T18:15:26.341Z,10.35
2022-12-24T18:17:53.523Z,15.48
2022-12-24T18:20:20.887Z,12.80
2022-12-24T18:22:47.864Z,17.40
2022-12-24T18:25:14.695Z,14.55
2022-12-24T18:27:41.179Z,22.70
2022-12-24T18:30:08.233Z,22.35
2022-12-24T18:32:35.326Z,20.88
2022-12-24T18:35:01.843Z,20.88
2022-12-24T18:37:28.348Z,18.20
2022-12-24T18:39:54.841Z,14.20
2022-12-24T18:42:21.321Z,16.13
2022-12-24T18:44:47.829Z,17.08
2022-12-24T18:47:14.401Z,21.15
2022-12-24T18:49:41.167Z,15.57
2022-12-24T18:52:09.377Z,17.10
2022-12-24T18:54:36.596Z,20.48
2022-12-24T18:57:03.617Z,24.73
2022-12-24T18:59:30.434Z,17.23
2022-12-24T19:01:57.321Z,20.02
2022-12-24T19:04:23.958Z,23.83
2022-12-24T19:06:53.190Z,22.05
2022-12-24T19:09:20.659Z,24.13
2022-12-24T19:11:47.275Z,29.30
2022-12-24T19:14:13.743Z,37.42
2022-12-24T19:16:40.849Z,31.70
2022-12-24T19:19:08.534Z,24.85
2022-12-24T19:21:35.203Z,23.10
2022-12-24T19:24:01.748Z,23.20
2022-12-24T19:26:28.331Z,23.95
2022-12-24T19:28:55.151Z,22.08
2022-12-24T19:31:22.929Z,22.45
2022-12-24T19:33:54.261Z,23.55
2022-12-24T19:36:22.169Z,20.20
2022-12-24T19:38:48.726Z,19.77
2022-12-24T19:41:18.513Z,19.55
2022-12-24T19:43:49.214Z,18.08
2022-12-24T19:46:17.422Z,18.75
2022-12-24T19:48:47.882Z,19.75
2022-12-24T19:51:14.367Z,19.15
2022-12-24T19:53:40.830Z,17.83
2022-12-24T19:56:08.611Z,17.98
2022-12-24T19:58:35.370Z,16.05
2022-12-24T20:01:09.699Z,17.73
2022-12-24T20:03:39.580Z,18.63
2022-12-24T20:06:06.841Z,16.63
2022-12-24T20:08:33.370Z,17.83
2022-12-24T20:11:03.217Z,19.17
2022-12-24T20:13:29.769Z,17.38
2022-12-24T20:15:56.233Z,19.80
2022-12-24T20:18:22.721Z,17.95
2022-12-24T20:20:49.175Z,19.73
2022-12-24T20:23:15.674Z,18.55
2022-12-24T20:25:42.274Z,18.83
2022-12-24T20:28:08.742Z,20.45
2022-12-24T20:30:40.352Z,19.35
2022-12-24T20:33:06.836Z,18.63
2022-12-24T20:35:34.240Z,21.95
2022-12-24T20:38:00.723Z,18.63
2022-12-24T20:40:27.173Z,18.73
2022-12-24T20:42:53.846Z,18.15
2022-12-24T20:45:20.284Z,19.15
2022-12-24T20:47:46.779Z,20.45
2022-12-24T20:50:13.361Z,19.20
2022-12-24T20:52:40.864Z,18.35
2022-12-24T20:55:07.466Z,18.90
2022-12-24T20:57:36.287Z,17.98
2022-12-24T21:00:03.741Z,19.05
2022-12-24T21:02:30.518Z,18.58
2022-12-24T21:05:01.880Z,17.90
2022-12-24T21:07:28.869Z,17.58
2022-12-24T21:09:55.320Z,17.70
2022-12-24T21:12:40.571Z,18.15
2022-12-24T21:15:07.086Z,15.70
2022-12-24T21:17:33.540Z,17.65
2022-12-24T21:20:00.570Z,19.52
2022-12-24T21:22:26.989Z,18.75
2022-12-24T21:24:53.456Z,17.40
2022-12-24T21:27:19.966Z,17.95
2022-12-24T21:29:46.497Z,17.23
2022-12-24T21:32:13.004Z,18.17
2022-12-24T21:34:39.452Z,17.10
2022-12-24T21:37:05.963Z,17.92
2022-12-24T21:39:32.486Z,17.90
2022-12-24T21:41:59.016Z,17.48
2022-12-24T21:44:25.512Z,15.43
2022-12-24T21:46:52.145Z,16.52
2022-12-24T21:49:37.461Z,13.55
2022-12-24T21:52:04.055Z,14.50
2022-12-24T21:54:31.412Z,14.52
2022-12-24T21:57:18.192Z,14.57
2022-12-24T21:59:44.862Z,14.75
2022-12-24T22:02:12.715Z,14.07
2022-12-24T22:04:39.638Z,13.90
2022-12-24T22:07:25.274Z,13.20
2022-12-24T22:10:10.482Z,13.40
2022-12-24T22:12:37.120Z,13.45
2022-12-24T22:15:05.281Z,14.43
2022-12-24T22:17:31.693Z,14.60
2022-12-24T22:19:58.239Z,13.20
2022-12-24T22:22:24.798Z,14.32
2022-12-24T22:24:51.420Z,14.57
2022-12-24T22:27:17.985Z,15.00
2022-12-24T22:29:44.503Z,13.55
2022-12-24T22:32:11.730Z,13.90
2022-12-24T22:34:39.628Z,12.18
2022-12-24T22:37:06.639Z,12.25
2022-12-24T22:39:36.313Z,12.23
2022-12-24T22:42:03.344Z,11.15
2022-12-24T22:44:30.016Z,11.98
2022-12-24T22:46:56.868Z,11.55
2022-12-24T22:49:30.845Z,11.63
2022-12-24T22:52:02.041Z,11.35
2022-12-24T22:54:30.948Z,11.75
2022-12-24T22:56:58.492Z,10.95
2022-12-24T22:59:28.459Z,10.32
2022-12-24T23:01:56.515Z,10.68
2022-12-24T23:04:26.717Z,10.82
2022-12-24T23:06:56.390Z,9.02
2022-12-24T23:09:27.419Z,10.45
2022-12-24T23:11:54.167Z,10.95
2022-12-24T23:14:41.597Z,11.13
2022-12-24T23:17:08.640Z,11.02
2022-12-24T23:19:38.461Z,10.05
2022-12-24T23:22:10.618Z,10.90
2022-12-24T23:27:25.161Z,10.50
2022-12-24T23:29:53.587Z,10.85
2022-12-24T23:32:23.419Z,11.18
2022-12-24T23:34:50.120Z,10.00
2022-12-24T23:37:18.123Z,10.25
2022-12-24T23:39:47.546Z,10.90
2022-12-24T23:42:15.156Z,10.90
2022-12-24T23:44:48.984Z,11.43
2022-12-24T23:47:17.840Z,11.77
2022-12-24T23:49:45.245Z,10.52
2022-12-24T23:52:12.277Z,10.27
2022-12-24T23:54:42.766Z,11.00
2022-12-24T23:57:13.873Z,12.05
2022-12-24T23:59:43.408Z,10.38
